Time;durP1;ratioP1;P1;durP2;ratioP2;P2;SDS_P1;SDS_P2;PMS_P1;PMS_P2;Temp;Humidity;BMP_temperature;BMP_pressure;BME280_temperature;BME280_humidity;BME280_pressure;Samples;Min_cycle;Max_cycle;Signal;HPM_P1;HPM_P2
2021/11/03 00:00:20;;;;;;;;;;;;;;;20.18;60.18;98512.09;2078357;28;19927;-61
2021/11/03 00:01:21;;;;;;;;;;;;;;;20.19;60.17;98512.97;2086523;28;19920;-61
2021/11/03 00:02:21;;;;;;;;;;;;;;;20.19;60.25;98507.50;2076463;28;19920;-61
2021/11/03 00:03:22;;;;;;;;;;;;;;;20.18;60.40;98511.25;2081352;28;19921;-62
2021/11/03 00:04:23;;;;;;;;;;;;;;;20.17;60.25;98506.84;2084848;28;20693;-62
2021/11/03 00:05:23;;;;;;;;;;;;;;;20.18;60.39;98511.25;2081647;28;19986;-62
2021/11/03 00:06:23;;;;;;;;;;;;;;;20.18;60.34;98512.09;2082801;28;19917;-66
2021/11/03 00:07:24;;;;;;;;;;;;;;;20.20;60.45;98514.66;2085741;28;19943;-67
2021/11/03 00:08:26;;;;;;;;;;;;;;;20.20;60.23;98511.91;2082753;28;19943;-66
2021/11/03 00:09:27;;;;;;;;;;;;;;;20.19;60.26;98515.72;2084420;28;19917;-66
2021/11/03 00:10:27;;;;;;;;;;;;;;;20.21;60.27;98516.34;2079470;28;20563;-66
2021/11/03 00:11:29;;;;;;;;;;;;;;;20.20;60.26;98517.38;2072063;28;20632;-66
2021/11/03 00:12:30;;;;;;;;;;;;;;;20.20;60.28;98510.03;2078100;28;19921;-66
2021/11/03 00:13:30;;;;;;;;;;;;;;;20.21;60.23;98516.34;2078902;28;19939;-67
2021/11/03 00:14:31;;;;;;;;;;;;;;;20.21;60.26;98513.59;2084924;28;19917;-66
2021/11/03 00:15:31;;;;;;;;;;;;;;;20.21;60.21;98510.88;2078311;28;19920;-67
2021/11/03 00:16:32;;;;;;;;;;;;;;;20.20;60.12;98510.03;2066761;28;19920;-67
2021/11/03 00:17:32;;;;;;;;;;;;;;;20.22;60.29;98507.09;2072118;28;19951;-67
2021/11/03 00:18:32;;;;;;;;;;;;;;;20.22;60.12;98501.63;2081225;28;19920;-67
2021/11/03 00:19:33;;;;;;;;;;;;;;;20.22;60.18;98501.63;2080562;28;20286;-67
2021/11/03 00:20:34;;;;;;;;;;;;;;;20.23;60.23;98508.78;2080666;28;20568;-65
2021/11/03 00:21:34;;;;;;;;;;;;;;;20.23;60.26;98508.78;2081215;28;20605;-65
2021/11/03 00:22:34;;;;;;;;;;;;;;;20.22;60.13;98501.63;2081365;28;20391;-65
2021/11/03 00:23:35;;;;;;;;;;;;;;;20.23;60.25;98500.56;2081137;28;19921;-65
2021/11/03 00:24:37;;;;;;;;;;;;;;;20.23;60.26;98503.31;2080197;28;20099;-65
2021/11/03 00:25:40;;;;;;;;;;;;;;;20.23;60.27;98504.16;2083374;28;19916;-65
2021/11/03 00:26:40;;;;;;;;;;;;;;;20.23;59.97;98500.56;2081020;28;19922;-66
2021/11/03 00:27:40;;;;;;;;;;;;;;;20.24;60.31;98499.56;2080001;28;20007;-66
2021/11/03 00:28:41;;;;;;;;;;;;;;;20.24;60.08;98499.56;2085219;28;19912;-66
2021/11/03 00:29:41;;;;;;;;;;;;;;;20.23;60.24;98504.16;2081533;28;19916;-65
2021/11/03 00:30:42;;;;;;;;;;;;;;;20.24;60.17;98500.38;2080600;28;19913;-66
2021/11/03 00:31:42;;;;;;;;;;;;;;;20.23;60.23;98504.16;2085539;28;19913;-65
2021/11/03 00:32:44;;;;;;;;;;;;;;;20.24;60.36;98499.56;2082120;28;19916;-66
2021/11/03 00:33:44;;;;;;;;;;;;;;;20.23;60.07;98497.84;2078879;28;20399;-65
2021/11/03 00:34:45;;;;;;;;;;;;;;;20.23;60.33;98500.56;2081831;28;20015;-66
2021/11/03 00:35:45;;;;;;;;;;;;;;;20.23;60.28;98492.38;2076364;28;19961;-66
2021/11/03 00:36:45;;;;;;;;;;;;;;;20.23;60.09;98486.91;2085724;28;19955;-65
2021/11/03 00:37:46;;;;;;;;;;;;;;;20.21;60.32;98483.50;2079743;28;19920;-65
2021/11/03 00:38:46;;;;;;;;;;;;;;;20.22;60.33;98479.75;2082740;28;19908;-66
2021/11/03 00:39:46;;;;;;;;;;;;;;;20.22;60.32;98480.59;2079318;28;19909;-66
2021/11/03 00:40:47;;;;;;;;;;;;;;;20.22;60.32;98483.31;2081356;28;20015;-66
2021/11/03 00:41:51;;;;;;;;;;;;;;;20.22;60.32;98479.75;2078449;28;19910;-67
2021/11/03 00:42:51;;;;;;;;;;;;;;;20.22;60.27;98480.59;2081001;28;19959;-67
2021/11/03 00:43:53;;;;;;;;;;;;;;;20.22;60.24;98475.13;2077482;28;19958;-66
2021/11/03 00:44:53;;;;;;;;;;;;;;;20.24;60.32;98472.19;2076913;28;20314;-67
2021/11/03 00:45:53;;;;;;;;;;;;;;;20.23;60.08;98468.59;2081502;28;19943;-66
2021/11/03 00:46:54;;;;;;;;;;;;;;;20.24;60.22;98470.28;2077578;28;20015;-66
2021/11/03 00:47:54;;;;;;;;;;;;;;;20.25;59.98;98473.88;2082063;28;19908;-66
2021/11/03 00:48:54;;;;;;;;;;;;;;;20.26;60.26;98470.06;2087584;28;19920;-66
2021/11/03 00:49:55;;;;;;;;;;;;;;;20.28;60.22;98468.00;2075125;28;20538;-66
2021/11/03 00:50:55;;;;;;;;;;;;;;;20.28;60.20;98459.78;2082786;28;19968;-59
2021/11/03 00:51:55;;;;;;;;;;;;;;;20.29;59.92;98458.75;2090489;28;19916;-59
2021/11/03 00:52:56;;;;;;;;;;;;;;;20.28;60.21;98462.53;2099413;28;20133;-58
2021/11/03 00:53:56;;;;;;;;;;;;;;;20.26;60.16;98465.47;2087224;28;19917;-59
2021/11/03 00:54:56;;;;;;;;;;;;;;;20.27;59.98;98463.59;2086656;28;20011;-60
2021/11/03 00:55:57;;;;;;;;;;;;;;;20.29;60.11;98464.22;2093129;28;19951;-59
2021/11/03 00:56:57;;;;;;;;;;;;;;;20.27;60.28;98461.69;2085395;28;19944;-59
2021/11/03 00:57:57;;;;;;;;;;;;;;;20.26;59.97;98464.59;2085645;28;19917;-59
2021/11/03 00:58:58;;;;;;;;;;;;;;;20.28;60.24;98459.78;2092688;28;20167;-59
2021/11/03 00:59:58;;;;;;;;;;;;;;;20.27;60.09;98453.47;2093234;28;20119;-59
2021/11/03 01:00:58;;;;;;;;;;;;;;;20.27;60.23;98450.75;2094055;28;19977;-59
2021/11/03 01:01:58;;;;;;;;;;;;;;;20.28;60.22;98457.06;2096311;28;19921;-59
2021/11/03 01:02:59;;;;;;;;;;;;;;;20.27;60.12;98445.28;2093639;28;19958;-59
2021/11/03 01:03:59;;;;;;;;;;;;;;;20.27;60.27;98447.16;2094302;28;19916;-60
2021/11/03 01:05:00;;;;;;;;;;;;;;;20.27;59.95;98442.53;2093692;28;19921;-59
2021/11/03 01:06:00;;;;;;;;;;;;;;;20.26;60.12;98438.13;2094634;28;20291;-59
2021/11/03 01:07:01;;;;;;;;;;;;;;;20.26;60.13;98435.38;2093407;28;19923;-59
2021/11/03 01:08:01;;;;;;;;;;;;;;;20.26;60.15;98439.97;2093609;28;19917;-59
2021/11/03 01:09:02;;;;;;;;;;;;;;;20.26;60.00;98437.25;2094404;28;20362;-60
2021/11/03 01:10:04;;;;;;;;;;;;;;;20.26;60.13;98448.19;2083656;28;19943;-57
2021/11/03 01:11:04;;;;;;;;;;;;;;;20.26;60.13;98445.44;2085786;28;19924;-59
2021/11/03 01:12:05;;;;;;;;;;;;;;;20.26;60.17;98442.72;2095993;28;19924;-58
2021/11/03 01:13:06;;;;;;;;;;;;;;;20.27;60.03;98445.28;2089767;28;19917;-58
2021/11/03 01:14:07;;;;;;;;;;;;;;;20.27;60.05;98455.38;2080325;28;20269;-58
2021/11/03 01:15:09;;;;;;;;;;;;;;;20.26;60.17;98440.84;2095553;28;20266;-58
2021/11/03 01:16:09;;;;;;;;;;;;;;;20.27;60.28;98444.44;2094122;28;19913;-58
2021/11/03 01:17:10;;;;;;;;;;;;;;;20.27;60.08;98444.44;2095416;28;19923;-58
2021/11/03 01:18:10;;;;;;;;;;;;;;;20.27;60.06;98445.28;2092762;28;19919;-58
2021/11/03 01:19:10;;;;;;;;;;;;;;;20.25;60.15;98447.34;2095001;28;19917;-58
2021/11/03 01:20:13;;;;;;;;;;;;;;;20.27;60.21;98449.91;2093885;28;19920;-58
2021/11/03 01:21:14;;;;;;;;;;;;;;;20.26;60.17;98445.44;2093517;28;19942;-59
2021/11/03 01:22:14;;;;;;;;;;;;;;;20.25;60.23;98441.03;2094061;28;19939;-58
2021/11/03 01:23:14;;;;;;;;;;;;;;;20.24;60.20;98431.16;2093150;28;20264;-59
2021/11/03 01:24:15;;;;;;;;;;;;;;;20.25;60.15;98430.09;2094564;28;20128;-58
2021/11/03 01:25:15;;;;;;;;;;;;;;;20.24;60.17;98436.63;2093951;28;19966;-58
2021/11/03 01:26:15;;;;;;;;;;;;;;;20.24;60.18;98434.72;2096732;28;19917;-59
2021/11/03 01:27:16;;;;;;;;;;;;;;;20.25;60.42;98432.84;2089823;28;20383;-59
2021/11/03 01:28:17;;;;;;;;;;;;;;;20.25;60.19;98438.31;2096408;28;20016;-58
2021/11/03 01:29:18;;;;;;;;;;;;;;;20.24;60.15;98436.63;2086366;28;19924;-58
2021/11/03 01:30:19;;;;;;;;;;;;;;;20.23;60.15;98433.00;2081922;28;19951;-58
2021/11/03 01:31:19;;;;;;;;;;;;;;;20.23;60.12;98427.53;2094151;28;19920;-59
2021/11/03 01:32:20;;;;;;;;;;;;;;;20.23;60.35;98421.22;2093360;28;19999;-58
2021/11/03 01:33:20;;;;;;;;;;;;;;;20.22;60.25;98425.03;2089869;28;19927;-59
2021/11/03 01:34:21;;;;;;;;;;;;;;;20.23;60.42;98423.97;2086834;28;20536;-57
2021/11/03 01:35:22;;;;;;;;;;;;;;;20.24;60.26;98428.41;2095673;28;20094;-57
2021/11/03 01:36:23;;;;;;;;;;;;;;;20.23;60.26;98423.97;2092307;28;19916;-57
2021/11/03 01:37:23;;;;;;;;;;;;;;;20.22;60.21;98412.19;2090628;28;19920;-57
2021/11/03 01:38:23;;;;;;;;;;;;;;;20.22;60.26;98405.88;2095694;28;19920;-58
2021/11/03 01:39:23;;;;;;;;;;;;;;;20.21;60.45;98401.44;2094395;28;19952;-58
2021/11/03 01:40:25;;;;;;;;;;;;;;;20.20;60.43;98406.06;2096673;28;19962;-59
2021/11/03 01:41:26;;;;;;;;;;;;;;;20.21;60.19;98398.69;2094993;28;19916;-59
2021/11/03 01:42:26;;;;;;;;;;;;;;;20.20;60.48;98394.28;2095351;28;20432;-68
2021/11/03 01:43:32;;;;;;;;;;;;;;;20.20;60.48;98395.13;2092637;28;20314;-68
2021/11/03 01:44:34;;;;;;;;;;;;;;;20.21;60.32;98393.22;2091929;28;20255;-68
2021/11/03 01:45:34;;;;;;;;;;;;;;;20.21;60.46;98385.00;2092095;28;19912;-68
2021/11/03 01:46:58;;;;;;;;;;;;;;;20.21;60.31;98393.22;2085670;28;19982;-69
2021/11/03 01:48:03;;;;;;;;;;;;;;;20.20;60.28;98389.66;2069581;28;19959;-69
2021/11/03 01:49:05;;;;;;;;;;;;;;;20.21;60.46;98395.97;2093164;28;19913;-68
2021/11/03 01:50:18;;;;;;;;;;;;;;;20.19;60.47;98403.53;2091739;28;19977;-68
2021/11/03 01:51:37;;;;;;;;;;;;;;;20.20;60.35;98405.22;2089272;28;19916;-68
2021/11/03 01:52:39;;;;;;;;;;;;;;;20.19;60.36;98406.28;2094782;28;19913;-68
2021/11/03 01:53:39;;;;;;;;;;;;;;;20.21;60.37;98406.91;2091243;28;19923;-68
2021/11/03 01:54:45;;;;;;;;;;;;;;;20.19;60.30;98400.81;2092148;28;19966;-68
2021/11/03 01:55:49;;;;;;;;;;;;;;;20.19;60.52;98404.38;2090592;28;19923;-68
2021/11/03 01:56:49;;;;;;;;;;;;;;;20.20;60.59;98399.75;2090412;28;20396;-68
2021/11/03 01:57:53;;;;;;;;;;;;;;;20.18;60.54;98402.66;2084256;28;20311;-68
2021/11/03 01:58:56;;;;;;;;;;;;;;;20.18;60.41;98401.84;2080777;28;20000;-68
2021/11/03 01:59:59;;;;;;;;;;;;;;;20.18;60.33;98404.56;2083339;28;19915;-68
2021/11/03 02:00:59;;;;;;;;;;;;;;;20.18;60.49;98399.09;2092001;28;19982;-68
2021/11/03 02:02:00;;;;;;;;;;;;;;;20.18;60.54;98401.84;2082587;28;19951;-68
2021/11/03 02:03:06;;;;;;;;;;;;;;;20.18;60.39;98396.38;2074556;28;20430;-68
2021/11/03 02:04:07;;;;;;;;;;;;;;;20.17;60.34;98402.88;2090156;28;19917;-68
2021/11/03 02:05:09;;;;;;;;;;;;;;;20.17;60.48;98400.16;2094256;28;20048;-69
2021/11/03 02:06:13;;;;;;;;;;;;;;;20.17;60.64;98402.88;2084841;28;19921;-68
2021/11/03 02:07:15;;;;;;;;;;;;;;;20.17;60.40;98400.16;2092428;28;20526;-68
2021/11/03 02:08:16;;;;;;;;;;;;;;;20.15;60.52;98396.75;2097117;28;19916;-68
2021/11/03 02:09:17;;;;;;;;;;;;;;;20.15;60.46;98391.28;2097715;28;19915;-68
2021/11/03 02:10:18;;;;;;;;;;;;;;;20.15;60.73;98383.09;2094823;28;19909;-68
2021/11/03 02:11:19;;;;;;;;;;;;;;;20.13;60.65;98378.63;2092613;28;20354;-69
2021/11/03 02:12:20;;;;;;;;;;;;;;;20.13;60.52;98373.16;2086128;28;20399;-68
2021/11/03 02:13:21;;;;;;;;;;;;;;;20.13;60.46;98375.91;2085538;28;19943;-69
2021/11/03 02:14:21;;;;;;;;;;;;;;;20.12;60.58;98387.91;2086173;28;19966;-61
2021/11/03 02:15:22;;;;;;;;;;;;;;;20.13;60.66;98386.00;2082882;28;19912;-62
2021/11/03 02:16:22;;;;;;;;;;;;;;;20.11;60.64;98386.22;2085023;28;19946;-65
2021/11/03 02:17:24;;;;;;;;;;;;;;;20.12;60.71;98382.44;2080591;28;19928;-61
2021/11/03 02:18:25;;;;;;;;;;;;;;;20.13;60.70;98389.59;2080391;28;20002;-62
2021/11/03 02:19:29;;;;;;;;;;;;;;;20.11;60.53;98383.50;2083944;28;20028;-62
2021/11/03 02:20:29;;;;;;;;;;;;;;;20.11;60.64;98383.50;2083483;28;19916;-63
2021/11/03 02:21:34;;;;;;;;;;;;;;;20.11;60.71;98377.16;2083980;28;19913;-63
2021/11/03 02:22:50;;;;;;;;;;;;;;;20.11;60.73;98375.28;2083141;28;20706;-62
2021/11/03 02:23:57;;;;;;;;;;;;;;;20.11;60.68;98371.69;2083268;28;20399;-63
2021/11/03 02:25:00;;;;;;;;;;;;;;;20.10;60.65;98379.03;2085519;28;20689;-63
2021/11/03 02:26:09;;;;;;;;;;;;;;;20.11;60.61;98378.03;2083779;28;21328;-63
2021/11/03 02:27:11;;;;;;;;;;;;;;;20.10;60.77;98376.31;2084155;28;19978;-63
2021/11/03 02:28:11;;;;;;;;;;;;;;;20.10;60.67;98362.63;2084070;28;19912;-62
2021/11/03 02:29:12;;;;;;;;;;;;;;;20.10;60.77;98359.91;2082146;28;19980;-62
2021/11/03 02:30:13;;;;;;;;;;;;;;;20.09;60.61;98355.47;2084158;28;19908;-63
2021/11/03 02:31:32;;;;;;;;;;;;;;;20.09;60.71;98350.00;2083824;28;19923;-63
2021/11/03 02:32:33;;;;;;;;;;;;;;;20.09;60.50;98350.00;2081062;28;19938;-62
2021/11/03 02:33:33;;;;;;;;;;;;;;;20.09;60.74;98343.72;2073799;28;19912;-62
2021/11/03 02:34:34;;;;;;;;;;;;;;;20.08;60.55;98352.94;2072307;28;19909;-60
2021/11/03 02:35:35;;;;;;;;;;;;;;;20.08;60.57;98342.84;2089829;28;19946;-61
2021/11/03 02:36:48;;;;;;;;;;;;;;;20.09;60.60;98343.72;2083060;28;19916;-61
2021/11/03 02:37:50;;;;;;;;;;;;;;;20.08;60.81;98356.50;2082689;28;19995;-61
2021/11/03 02:38:50;;;;;;;;;;;;;;;20.07;60.61;98352.09;2083147;28;19917;-61
2021/11/03 02:39:56;;;;;;;;;;;;;;;20.08;60.91;98358.41;2084038;28;19947;-61
2021/11/03 02:41:03;;;;;;;;;;;;;;;20.07;60.68;98360.31;2081991;28;20512;-62
2021/11/03 02:42:04;;;;;;;;;;;;;;;20.06;60.66;98355.88;2083770;28;19947;-62
2021/11/03 02:43:10;;;;;;;;;;;;;;;20.07;60.61;98351.25;2082866;28;19916;-62
2021/11/03 02:44:13;;;;;;;;;;;;;;;20.06;60.68;98355.03;2086125;28;19940;-62
2021/11/03 02:45:18;;;;;;;;;;;;;;;20.04;60.92;98349.75;2083608;28;19920;-62
2021/11/03 02:46:18;;;;;;;;;;;;;;;20.05;60.64;98354.19;2084525;28;19916;-62
2021/11/03 02:47:19;;;;;;;;;;;;;;;20.04;60.97;98352.50;2082768;28;20194;-62
2021/11/03 02:48:20;;;;;;;;;;;;;;;20.04;60.92;98352.50;2074841;28;19960;-62
2021/11/03 02:49:21;;;;;;;;;;;;;;;20.03;60.73;98339.00;2071472;28;20007;-62
2021/11/03 02:50:21;;;;;;;;;;;;;;;20.03;60.74;98345.31;2081898;28;20387;-62
2021/11/03 02:51:21;;;;;;;;;;;;;;;20.03;60.71;98350.78;2082313;28;20355;-62
2021/11/03 02:52:24;;;;;;;;;;;;;;;20.03;60.85;98345.31;2079895;28;19951;-62
2021/11/03 02:53:24;;;;;;;;;;;;;;;20.03;60.92;98348.06;2073088;28;19963;-62
2021/11/03 02:54:25;;;;;;;;;;;;;;;20.02;61.06;98342.81;2078669;28;19920;-62
2021/11/03 02:55:25;;;;;;;;;;;;;;;20.01;60.97;98344.66;2083903;28;19917;-62
2021/11/03 02:56:28;;;;;;;;;;;;;;;20.01;60.93;98347.41;2087110;28;19908;-62
2021/11/03 02:57:28;;;;;;;;;;;;;;;19.99;60.99;98344.03;2076385;28;19963;-61
2021/11/03 02:58:29;;;;;;;;;;;;;;;20.01;60.88;98341.94;2077653;28;19921;-62
2021/11/03 02:59:29;;;;;;;;;;;;;;;20.00;60.89;98342.16;2085255;28;20491;-60
2021/11/03 03:00:29;;;;;;;;;;;;;;;19.99;60.83;98338.56;2083055;28;20115;-61
2021/11/03 03:01:32;;;;;;;;;;;;;;;19.99;60.84;98337.72;2085179;28;19951;-61
2021/11/03 03:02:32;;;;;;;;;;;;;;;19.98;60.85;98334.13;2085091;28;20038;-60
2021/11/03 03:03:33;;;;;;;;;;;;;;;19.99;60.97;98344.03;2081916;28;19923;-61
2021/11/03 03:04:34;;;;;;;;;;;;;;;19.98;61.06;98336.88;2090072;28;19936;-61
2021/11/03 03:05:35;;;;;;;;;;;;;;;19.98;60.91;98333.28;2083078;28;19916;-61
2021/11/03 03:06:35;;;;;;;;;;;;;;;19.97;60.99;98332.47;2088302;28;19924;-61
2021/11/03 03:07:35;;;;;;;;;;;;;;;19.97;61.02;98334.34;2087690;28;19917;-61
2021/11/03 03:08:36;;;;;;;;;;;;;;;19.97;61.07;98332.47;2078056;28;20303;-61
2021/11/03 03:09:36;;;;;;;;;;;;;;;19.97;60.89;98339.81;2083808;28;20401;-62
2021/11/03 03:10:36;;;;;;;;;;;;;;;19.97;61.07;98351.59;2083265;28;19929;-62
2021/11/03 03:11:38;;;;;;;;;;;;;;;19.96;60.89;98344.41;2080760;28;19908;-61
2021/11/03 03:12:39;;;;;;;;;;;;;;;19.96;61.00;98341.69;2081091;28;19917;-61
2021/11/03 03:13:39;;;;;;;;;;;;;;;19.96;61.07;98349.88;2081946;28;20023;-62
2021/11/03 03:14:41;;;;;;;;;;;;;;;19.95;61.06;98348.22;2072171;28;19917;-62
2021/11/03 03:15:41;;;;;;;;;;;;;;;19.95;60.97;98341.91;2069753;28;19921;-62
2021/11/03 03:16:43;;;;;;;;;;;;;;;19.95;60.90;98348.22;2074148;28;19932;-62
2021/11/03 03:17:43;;;;;;;;;;;;;;;19.94;61.17;98342.94;2083879;28;19920;-61
2021/11/03 03:18:44;;;;;;;;;;;;;;;19.93;61.01;98344.81;2090962;28;20018;-62
2021/11/03 03:19:45;;;;;;;;;;;;;;;19.92;60.99;98340.41;2085850;28;19923;-61
2021/11/03 03:20:45;;;;;;;;;;;;;;;19.92;61.07;98343.16;2082977;28;19916;-61
2021/11/03 03:21:45;;;;;;;;;;;;;;;19.92;61.33;98343.16;2084827;28;20652;-61
2021/11/03 03:22:46;;;;;;;;;;;;;;;19.91;61.18;98344.16;2082689;28;19921;-61
2021/11/03 03:23:47;;;;;;;;;;;;;;;19.90;61.15;98342.50;2085305;28;20529;-62
2021/11/03 03:24:47;;;;;;;;;;;;;;;19.90;61.04;98343.34;2083603;28;20282;-61
2021/11/03 03:25:49;;;;;;;;;;;;;;;19.90;61.13;98339.75;2079647;28;19995;-61
2021/11/03 03:26:50;;;;;;;;;;;;;;;19.89;61.28;98343.50;2067275;28;20346;-61
2021/11/03 03:27:50;;;;;;;;;;;;;;;19.90;61.26;98350.69;2070711;28;19999;-62
2021/11/03 03:28:51;;;;;;;;;;;;;;;19.90;61.15;98342.50;2083596;28;20440;-61
2021/11/03 03:29:52;;;;;;;;;;;;;;;19.88;61.28;98347.31;2076279;28;19917;-60
2021/11/03 03:30:52;;;;;;;;;;;;;;;19.89;61.17;98354.44;2078124;28;20534;-61
2021/11/03 03:31:52;;;;;;;;;;;;;;;19.87;61.17;98351.09;2083589;28;20272;-61
2021/11/03 03:32:53;;;;;;;;;;;;;;;19.88;61.14;98353.63;2083091;28;20151;-61
2021/11/03 03:33:54;;;;;;;;;;;;;;;19.87;61.38;98354.66;2083501;28;19916;-62
2021/11/03 03:34:55;;;;;;;;;;;;;;;19.88;61.19;98355.50;2084707;28;19935;-61
2021/11/03 03:35:55;;;;;;;;;;;;;;;19.86;61.23;98349.38;2082273;28;19916;-61
2021/11/03 03:36:56;;;;;;;;;;;;;;;19.86;61.17;98349.38;2087715;28;20306;-61
2021/11/03 03:37:57;;;;;;;;;;;;;;;19.86;61.30;98349.38;2084368;28;19920;-61
2021/11/03 03:38:57;;;;;;;;;;;;;;;19.85;61.32;98343.09;2083031;28;19921;-61
2021/11/03 03:39:58;;;;;;;;;;;;;;;19.85;61.20;98350.44;2084976;28;19904;-61
2021/11/03 03:40:58;;;;;;;;;;;;;;;19.85;61.24;98342.25;2081064;28;19915;-61
2021/11/03 03:42:17;;;;;;;;;;;;;;;19.84;61.42;98346.00;2071530;28;19939;-62
2021/11/03 03:43:18;;;;;;;;;;;;;;;19.83;61.33;98347.06;2077986;28;19916;-61
2021/11/03 03:44:18;;;;;;;;;;;;;;;19.84;61.30;98351.47;2084241;28;20284;-61
2021/11/03 03:45:18;;;;;;;;;;;;;;;19.83;61.22;98349.78;2087414;28;20673;-61
2021/11/03 03:46:19;;;;;;;;;;;;;;;19.84;61.25;98356.94;2084171;28;19909;-62
2021/11/03 03:47:19;;;;;;;;;;;;;;;19.83;61.35;98349.78;2083477;28;19917;-61
2021/11/03 03:48:20;;;;;;;;;;;;;;;19.83;61.23;98355.25;2081197;28;19998;-61
2021/11/03 03:49:21;;;;;;;;;;;;;;;19.82;61.39;98348.94;2088696;28;20494;-61
2021/11/03 03:50:21;;;;;;;;;;;;;;;19.82;61.36;98348.06;2082531;28;19920;-61
2021/11/03 03:51:22;;;;;;;;;;;;;;;19.82;61.26;98343.47;2082427;28;19916;-61
2021/11/03 03:52:22;;;;;;;;;;;;;;;19.81;61.40;98341.78;2082576;28;19917;-61
2021/11/03 03:53:23;;;;;;;;;;;;;;;19.81;61.26;98341.78;2074398;28;19917;-61
2021/11/03 03:54:23;;;;;;;;;;;;;;;19.81;61.26;98340.94;2081707;28;20069;-61
2021/11/03 03:55:24;;;;;;;;;;;;;;;19.81;61.13;98330.00;2083970;28;19922;-60
2021/11/03 03:56:24;;;;;;;;;;;;;;;19.81;61.29;98340.94;2086546;28;20250;-62
2021/11/03 03:57:24;;;;;;;;;;;;;;;19.79;61.29;98338.38;2084000;28;19916;-62
2021/11/03 03:58:25;;;;;;;;;;;;;;;19.79;61.28;98335.66;2082405;28;20410;-61
2021/11/03 03:59:25;;;;;;;;;;;;;;;19.79;61.31;98349.31;2079473;28;19917;-62
2021/11/03 04:00:26;;;;;;;;;;;;;;;19.79;61.39;98337.53;2076426;28;19917;-61
2021/11/03 04:01:27;;;;;;;;;;;;;;;19.79;61.41;98337.53;2081503;28;19920;-62
2021/11/03 04:02:28;;;;;;;;;;;;;;;19.78;61.45;98335.88;2076275;28;20296;-62
2021/11/03 04:03:28;;;;;;;;;;;;;;;19.77;61.49;98340.50;2080298;28;20208;-63
2021/11/03 04:04:28;;;;;;;;;;;;;;;19.78;61.32;98338.59;2083749;28;19921;-62
2021/11/03 04:05:29;;;;;;;;;;;;;;;19.78;61.38;98346.81;2082576;28;19955;-62
2021/11/03 04:06:30;;;;;;;;;;;;;;;19.77;61.45;98334.16;2082181;28;19925;-63
2021/11/03 04:07:30;;;;;;;;;;;;;;;19.77;61.36;98339.63;2084373;28;19923;-62
2021/11/03 04:08:30;;;;;;;;;;;;;;;19.77;61.51;98336.88;2081787;28;19955;-62
2021/11/03 04:09:31;;;;;;;;;;;;;;;19.75;61.44;98339.00;2082724;28;19916;-63
2021/11/03 04:10:31;;;;;;;;;;;;;;;19.76;61.38;98335.22;2088891;28;19928;-61
2021/11/03 04:11:32;;;;;;;;;;;;;;;19.75;61.40;98325.34;2082828;28;19916;-61
2021/11/03 04:12:32;;;;;;;;;;;;;;;19.74;61.33;98335.41;2077543;28;19960;-61
2021/11/03 04:13:32;;;;;;;;;;;;;;;19.75;61.37;98333.53;2081406;28;19927;-62
2021/11/03 04:14:33;;;;;;;;;;;;;;;19.74;61.31;98338.13;2082807;28;20425;-61
2021/11/03 04:15:33;;;;;;;;;;;;;;;19.75;61.44;98339.00;2080048;28;19913;-61
2021/11/03 04:16:34;;;;;;;;;;;;;;;19.73;61.37;98339.19;2087330;28;19908;-61
2021/11/03 04:17:34;;;;;;;;;;;;;;;19.74;61.42;98334.56;2072186;28;20629;-61
2021/11/03 04:18:34;;;;;;;;;;;;;;;19.73;61.36;98335.63;2073024;28;19917;-61
2021/11/03 04:19:35;;;;;;;;;;;;;;;19.73;61.34;98341.91;2081847;28;19954;-62
2021/11/03 04:20:35;;;;;;;;;;;;;;;19.73;61.49;98335.63;2084650;28;19916;-61
2021/11/03 04:21:36;;;;;;;;;;;;;;;19.73;61.51;98343.81;2082116;28;19916;-61
2021/11/03 04:22:37;;;;;;;;;;;;;;;19.72;61.51;98339.38;2081758;28;19916;-61
2021/11/03 04:23:37;;;;;;;;;;;;;;;19.72;61.42;98339.38;2083405;28;19927;-61
2021/11/03 04:24:37;;;;;;;;;;;;;;;19.72;61.46;98339.38;2083243;28;20315;-62
2021/11/03 04:25:38;;;;;;;;;;;;;;;19.70;61.39;98337.69;2078565;28;19917;-61
2021/11/03 04:26:42;;;;;;;;;;;;;;;19.70;61.51;98337.69;2090737;28;20470;-62
2021/11/03 04:27:42;;;;;;;;;;;;;;;19.70;61.40;98340.44;2083397;28;19963;-62
2021/11/03 04:28:43;;;;;;;;;;;;;;;19.69;61.52;98344.19;2083640;28;19924;-61
2021/11/03 04:29:43;;;;;;;;;;;;;;;19.70;61.45;98351.38;2080776;28;19941;-61
2021/11/03 04:30:44;;;;;;;;;;;;;;;19.69;61.54;98352.38;2077122;28;19916;-61
2021/11/03 04:31:45;;;;;;;;;;;;;;;19.70;61.37;98356.00;2077783;28;20498;-62
2021/11/03 04:32:46;;;;;;;;;;;;;;;19.69;61.52;98346.06;2080902;28;19916;-61
2021/11/03 04:33:47;;;;;;;;;;;;;;;19.68;61.51;98347.97;2082465;28;19947;-61
2021/11/03 04:34:48;;;;;;;;;;;;;;;19.68;61.45;98353.44;2079648;28;20011;-61
2021/11/03 04:35:48;;;;;;;;;;;;;;;19.67;61.47;98351.75;2079283;28;19916;-62
2021/11/03 04:36:50;;;;;;;;;;;;;;;19.67;61.45;98346.28;2077174;28;19920;-62
2021/11/03 04:37:50;;;;;;;;;;;;;;;19.67;61.41;98354.50;2080554;28;19920;-62
2021/11/03 04:38:52;;;;;;;;;;;;;;;19.67;61.47;98357.22;2081406;28;19917;-62
2021/11/03 04:39:53;;;;;;;;;;;;;;;19.67;61.60;98356.31;2083350;28;20308;-62
2021/11/03 04:40:53;;;;;;;;;;;;;;;19.66;61.62;98355.47;2081281;28;20230;-62
2021/11/03 04:41:53;;;;;;;;;;;;;;;19.66;61.41;98355.47;2081367;28;20039;-62
2021/11/03 04:42:54;;;;;;;;;;;;;;;19.67;61.50;98357.22;2082723;28;19916;-62
2021/11/03 04:43:54;;;;;;;;;;;;;;;19.66;61.49;98365.56;2084048;28;19914;-62
2021/11/03 04:44:55;;;;;;;;;;;;;;;19.65;61.58;98367.47;2083806;28;20055;-62
2021/11/03 04:45:55;;;;;;;;;;;;;;;19.65;61.56;98370.22;2075815;28;19908;-62
2021/11/03 04:46:55;;;;;;;;;;;;;;;19.65;61.48;98375.66;2077758;28;20003;-62
2021/11/03 04:47:55;;;;;;;;;;;;;;;19.65;61.56;98374.84;2085029;28;19916;-62
2021/11/03 04:48:57;;;;;;;;;;;;;;;19.64;61.57;98373.97;2080890;28;19943;-62
2021/11/03 04:49:58;;;;;;;;;;;;;;;19.64;61.54;98373.13;2082395;28;19916;-62
2021/11/03 04:50:59;;;;;;;;;;;;;;;19.62;61.62;98376.06;2084823;28;20102;-62
2021/11/03 04:51:59;;;;;;;;;;;;;;;19.63;61.54;98371.44;2077837;28;19960;-61
2021/11/03 04:52:59;;;;;;;;;;;;;;;19.63;61.43;98383.22;2077919;28;19989;-62
2021/11/03 04:54:00;;;;;;;;;;;;;;;19.63;61.56;98376.91;2083035;28;20015;-62
2021/11/03 04:55:00;;;;;;;;;;;;;;;19.63;61.60;98382.38;2084852;28;19915;-62
2021/11/03 04:56:01;;;;;;;;;;;;;;;19.63;61.63;98376.91;2076314;28;19943;-61
2021/11/03 04:57:02;;;;;;;;;;;;;;;19.62;61.65;98369.72;2076242;28;19921;-63
2021/11/03 04:58:03;;;;;;;;;;;;;;;19.62;61.64;98375.19;2076722;28;19928;-62
2021/11/03 04:59:03;;;;;;;;;;;;;;;19.62;61.72;98370.59;2074922;28;20425;-61
2021/11/03 05:00:07;;;;;;;;;;;;;;;19.62;61.56;98375.19;2067262;28;19983;-62
2021/11/03 05:01:08;;;;;;;;;;;;;;;19.61;61.62;98374.34;2067091;28;19931;-62
2021/11/03 05:02:08;;;;;;;;;;;;;;;19.61;61.66;98370.78;2082407;28;19916;-63
2021/11/03 05:03:08;;;;;;;;;;;;;;;19.59;61.73;98370.97;2081364;28;19987;-61
2021/11/03 05:04:08;;;;;;;;;;;;;;;19.59;61.58;98381.91;2084527;28;19916;-62
2021/11/03 05:05:09;;;;;;;;;;;;;;;19.59;61.80;98372.88;2082490;28;19999;-62
2021/11/03 05:06:10;;;;;;;;;;;;;;;19.58;61.59;98372.03;2083657;28;20328;-61
2021/11/03 05:07:11;;;;;;;;;;;;;;;19.58;61.71;98377.50;2082633;28;19923;-62
2021/11/03 05:08:11;;;;;;;;;;;;;;;19.58;61.58;98374.75;2082418;28;20457;-62
2021/11/03 05:09:12;;;;;;;;;;;;;;;19.59;61.65;98375.59;2083779;28;20298;-62
2021/11/03 05:10:12;;;;;;;;;;;;;;;19.58;61.71;98385.69;2080958;28;19913;-62
2021/11/03 05:11:13;;;;;;;;;;;;;;;19.58;61.79;98388.44;2077127;28;19916;-62
2021/11/03 05:12:13;;;;;;;;;;;;;;;19.58;61.62;98380.22;2083009;28;20512;-62
2021/11/03 05:13:13;;;;;;;;;;;;;;;19.57;61.72;98381.25;2082243;28;20057;-62
2021/11/03 05:14:14;;;;;;;;;;;;;;;19.57;61.60;98378.50;2084783;28;20350;-62
2021/11/03 05:15:14;;;;;;;;;;;;;;;19.57;61.63;98389.44;2082930;28;20336;-62
2021/11/03 05:16:17;;;;;;;;;;;;;;;19.56;61.69;98387.75;2080424;28;21052;-62
2021/11/03 05:17:17;;;;;;;;;;;;;;;19.55;61.60;98386.09;2086048;28;19952;-62
2021/11/03 05:18:17;;;;;;;;;;;;;;;19.55;61.67;98385.22;2080056;28;19912;-62
2021/11/03 05:19:27;;;;;;;;;;;;;;;19.55;61.58;98390.69;2086459;28;20442;-62